sensor_id;sensor_type;location;lat;lon;timestamp;P1;durP1;ratioP1;P2;durP2;ratioP2
13173;SDS011;6652;48.802;9.190;2023-09-18T00:01:52;7.38;;;3.25;;
13173;SDS011;6652;48.802;9.190;2023-09-18T00:04:20;7.47;;;3.78;;
13173;SDS011;6652;48.802;9.190;2023-09-18T00:06:47;6.40;;;3.50;;
13173;SDS011;6652;48.802;9.190;2023-09-18T00:09:14;10.27;;;3.35;;
13173;SDS011;6652;48.802;9.190;2023-09-18T00:11:41;9.70;;;3.67;;
13173;SDS011;6652;48.802;9.190;2023-09-18T00:14:08;8.55;;;3.33;;
13173;SDS011;6652;48.802;9.190;2023-09-18T00:16:35;7.38;;;3.58;;
13173;SDS011;6652;48.802;9.190;2023-09-18T00:19:02;8.15;;;3.22;;
13173;SDS011;6652;48.802;9.190;2023-09-18T00:21:30;7.35;;;3.30;;
13173;SDS011;6652;48.802;9.190;2023-09-18T00:23:57;6.53;;;3.38;;
13173;SDS011;6652;48.802;9.190;2023-09-18T00:26:24;10.68;;;3.55;;
13173;SDS011;6652;48.802;9.190;2023-09-18T00:28:51;5.53;;;3.00;;
13173;SDS011;6652;48.802;9.190;2023-09-18T00:31:18;7.88;;;3.45;;
13173;SDS011;6652;48.802;9.190;2023-09-18T00:33:45;7.07;;;3.45;;
13173;SDS011;6652;48.802;9.190;2023-09-18T00:36:13;5.65;;;3.00;;
13173;SDS011;6652;48.802;9.190;2023-09-18T00:38:41;8.82;;;3.65;;
13173;SDS011;6652;48.802;9.190;2023-09-18T00:41:09;9.25;;;3.65;;
13173;SDS011;6652;48.802;9.190;2023-09-18T00:43:36;7.57;;;3.78;;
13173;SDS011;6652;48.802;9.190;2023-09-18T00:46:03;8.35;;;3.58;;
13173;SDS011;6652;48.802;9.190;2023-09-18T00:48:30;6.88;;;4.28;;
13173;SDS011;6652;48.802;9.190;2023-09-18T00:50:57;8.05;;;3.10;;
13173;SDS011;6652;48.802;9.190;2023-09-18T00:53:24;4.10;;;2.92;;
13173;SDS011;6652;48.802;9.190;2023-09-18T00:55:54;11.38;;;3.50;;
13173;SDS011;6652;48.802;9.190;2023-09-18T00:58:23;13.88;;;3.65;;
13173;SDS011;6652;48.802;9.190;2023-09-18T01:00:53;6.75;;;3.60;;
13173;SDS011;6652;48.802;9.190;2023-09-18T01:03:21;14.48;;;3.90;;
13173;SDS011;6652;48.802;9.190;2023-09-18T01:05:50;7.75;;;3.50;;
13173;SDS011;6652;48.802;9.190;2023-09-18T01:08:17;5.55;;;3.53;;
13173;SDS011;6652;48.802;9.190;2023-09-18T01:10:45;4.93;;;3.40;;
13173;SDS011;6652;48.802;9.190;2023-09-18T01:13:23;7.85;;;4.35;;
13173;SDS011;6652;48.802;9.190;2023-09-18T01:15:57;12.10;;;3.95;;
13173;SDS011;6652;48.802;9.190;2023-09-18T01:18:29;10.32;;;4.40;;
13173;SDS011;6652;48.802;9.190;2023-09-18T01:20:56;9.13;;;5.00;;
13173;SDS011;6652;48.802;9.190;2023-09-18T01:23:24;14.05;;;4.18;;
13173;SDS011;6652;48.802;9.190;2023-09-18T01:25:50;9.63;;;4.30;;
13173;SDS011;6652;48.802;9.190;2023-09-18T01:28:17;8.25;;;3.58;;
13173;SDS011;6652;48.802;9.190;2023-09-18T01:30:44;4.85;;;3.03;;
13173;SDS011;6652;48.802;9.190;2023-09-18T01:33:11;6.18;;;3.63;;
13173;SDS011;6652;48.802;9.190;2023-09-18T01:35:39;5.93;;;3.45;;
13173;SDS011;6652;48.802;9.190;2023-09-18T01:38:07;11.27;;;3.97;;
13173;SDS011;6652;48.802;9.190;2023-09-18T01:40:37;8.60;;;3.70;;
13173;SDS011;6652;48.802;9.190;2023-09-18T01:43:05;13.93;;;4.18;;
13173;SDS011;6652;48.802;9.190;2023-09-18T01:45:33;8.40;;;3.70;;
13173;SDS011;6652;48.802;9.190;2023-09-18T01:48:00;11.15;;;4.30;;
13173;SDS011;6652;48.802;9.190;2023-09-18T01:50:29;6.25;;;3.70;;
13173;SDS011;6652;48.802;9.190;2023-09-18T01:52:58;6.53;;;2.83;;
13173;SDS011;6652;48.802;9.190;2023-09-18T01:55:25;4.60;;;2.97;;
13173;SDS011;6652;48.802;9.190;2023-09-18T01:57:55;9.45;;;2.83;;
13173;SDS011;6652;48.802;9.190;2023-09-18T02:00:22;5.78;;;2.50;;
13173;SDS011;6652;48.802;9.190;2023-09-18T02:02:49;9.98;;;3.13;;
13173;SDS011;6652;48.802;9.190;2023-09-18T02:05:16;7.72;;;2.65;;
13173;SDS011;6652;48.802;9.190;2023-09-18T02:07:42;10.23;;;3.40;;
13173;SDS011;6652;48.802;9.190;2023-09-18T02:10:09;8.98;;;2.70;;
13173;SDS011;6652;48.802;9.190;2023-09-18T02:12:37;20.02;;;2.78;;
13173;SDS011;6652;48.802;9.190;2023-09-18T02:15:06;7.00;;;2.60;;
13173;SDS011;6652;48.802;9.190;2023-09-18T02:17:36;12.52;;;2.78;;
13173;SDS011;6652;48.802;9.190;2023-09-18T02:20:03;12.25;;;2.50;;
13173;SDS011;6652;48.802;9.190;2023-09-18T02:22:36;13.32;;;3.45;;
13173;SDS011;6652;48.802;9.190;2023-09-18T02:25:05;7.30;;;3.00;;
13173;SDS011;6652;48.802;9.190;2023-09-18T02:27:32;10.63;;;2.92;;
13173;SDS011;6652;48.802;9.190;2023-09-18T02:29:59;9.27;;;2.88;;
13173;SDS011;6652;48.802;9.190;2023-09-18T02:32:27;9.88;;;3.30;;
13173;SDS011;6652;48.802;9.190;2023-09-18T02:34:55;9.48;;;2.83;;
13173;SDS011;6652;48.802;9.190;2023-09-18T02:37:21;17.52;;;3.28;;
13173;SDS011;6652;48.802;9.190;2023-09-18T02:39:49;11.10;;;2.85;;
13173;SDS011;6652;48.802;9.190;2023-09-18T02:42:15;12.85;;;3.38;;
13173;SDS011;6652;48.802;9.190;2023-09-18T02:44:42;15.13;;;3.65;;
13173;SDS011;6652;48.802;9.190;2023-09-18T02:47:09;14.13;;;2.55;;
13173;SDS011;6652;48.802;9.190;2023-09-18T02:49:37;21.05;;;3.00;;
13173;SDS011;6652;48.802;9.190;2023-09-18T02:52:04;20.92;;;3.33;;
13173;SDS011;6652;48.802;9.190;2023-09-18T02:54:31;18.13;;;4.00;;
13173;SDS011;6652;48.802;9.190;2023-09-18T02:56:58;15.48;;;3.40;;
13173;SDS011;6652;48.802;9.190;2023-09-18T02:59:25;19.17;;;3.60;;
13173;SDS011;6652;48.802;9.190;2023-09-18T03:01:52;14.68;;;3.92;;
13173;SDS011;6652;48.802;9.190;2023-09-18T03:04:19;20.20;;;3.10;;
13173;SDS011;6652;48.802;9.190;2023-09-18T03:06:47;15.98;;;3.53;;
13173;SDS011;6652;48.802;9.190;2023-09-18T03:09:16;16.70;;;3.63;;
13173;SDS011;6652;48.802;9.190;2023-09-18T03:11:44;11.35;;;3.17;;
13173;SDS011;6652;48.802;9.190;2023-09-18T03:14:10;9.50;;;3.10;;
13173;SDS011;6652;48.802;9.190;2023-09-18T03:16:37;12.07;;;2.97;;
13173;SDS011;6652;48.802;9.190;2023-09-18T03:19:04;17.50;;;3.72;;
13173;SDS011;6652;48.802;9.190;2023-09-18T03:21:30;20.40;;;3.30;;
13173;SDS011;6652;48.802;9.190;2023-09-18T03:24:01;13.88;;;3.95;;
13173;SDS011;6652;48.802;9.190;2023-09-18T03:26:29;15.00;;;3.20;;
13173;SDS011;6652;48.802;9.190;2023-09-18T03:28:55;15.20;;;3.60;;
13173;SDS011;6652;48.802;9.190;2023-09-18T03:31:22;15.57;;;3.17;;
13173;SDS011;6652;48.802;9.190;2023-09-18T03:33:49;22.77;;;3.88;;
13173;SDS011;6652;48.802;9.190;2023-09-18T03:36:16;15.63;;;3.25;;
13173;SDS011;6652;48.802;9.190;2023-09-18T03:38:42;16.63;;;3.60;;
13173;SDS011;6652;48.802;9.190;2023-09-18T03:41:10;12.43;;;2.95;;
13173;SDS011;6652;48.802;9.190;2023-09-18T03:43:37;25.25;;;3.45;;
13173;SDS011;6652;48.802;9.190;2023-09-18T03:46:04;14.75;;;3.20;;
13173;SDS011;6652;48.802;9.190;2023-09-18T03:48:31;19.17;;;3.20;;
13173;SDS011;6652;48.802;9.190;2023-09-18T03:51:02;20.60;;;4.22;;
13173;SDS011;6652;48.802;9.190;2023-09-18T03:53:29;17.05;;;3.20;;
13173;SDS011;6652;48.802;9.190;2023-09-18T03:55:56;17.63;;;3.50;;
13173;SDS011;6652;48.802;9.190;2023-09-18T03:58:24;21.63;;;3.70;;
13173;SDS011;6652;48.802;9.190;2023-09-18T04:00:50;17.08;;;3.22;;
13173;SDS011;6652;48.802;9.190;2023-09-18T04:03:17;19.98;;;3.33;;
13173;SDS011;6652;48.802;9.190;2023-09-18T04:05:44;15.63;;;3.08;;
13173;SDS011;6652;48.802;9.190;2023-09-18T04:08:11;12.80;;;3.08;;
13173;SDS011;6652;48.802;9.190;2023-09-18T04:10:38;20.63;;;3.70;;
13173;SDS011;6652;48.802;9.190;2023-09-18T04:13:05;12.38;;;3.13;;
13173;SDS011;6652;48.802;9.190;2023-09-18T04:15:33;13.70;;;3.20;;
13173;SDS011;6652;48.802;9.190;2023-09-18T04:18:02;17.65;;;3.13;;
13173;SDS011;6652;48.802;9.190;2023-09-18T04:20:29;16.10;;;2.97;;
13173;SDS011;6652;48.802;9.190;2023-09-18T04:23:19;16.42;;;2.70;;
13173;SDS011;6652;48.802;9.190;2023-09-18T04:25:47;12.55;;;2.83;;
13173;SDS011;6652;48.802;9.190;2023-09-18T04:28:15;11.45;;;2.65;;
13173;SDS011;6652;48.802;9.190;2023-09-18T04:30:45;9.80;;;2.78;;
13173;SDS011;6652;48.802;9.190;2023-09-18T04:33:12;13.85;;;3.08;;
13173;SDS011;6652;48.802;9.190;2023-09-18T04:35:39;9.15;;;3.25;;
13173;SDS011;6652;48.802;9.190;2023-09-18T04:38:07;21.10;;;3.65;;
13173;SDS011;6652;48.802;9.190;2023-09-18T04:40:35;11.38;;;3.25;;
13173;SDS011;6652;48.802;9.190;2023-09-18T04:43:02;21.75;;;4.85;;
13173;SDS011;6652;48.802;9.190;2023-09-18T04:45:30;19.52;;;3.85;;
13173;SDS011;6652;48.802;9.190;2023-09-18T04:47:59;21.20;;;5.60;;
13173;SDS011;6652;48.802;9.190;2023-09-18T04:50:26;18.65;;;3.63;;
13173;SDS011;6652;48.802;9.190;2023-09-18T04:52:53;13.73;;;3.80;;
13173;SDS011;6652;48.802;9.190;2023-09-18T04:55:21;18.67;;;4.32;;
13173;SDS011;6652;48.802;9.190;2023-09-18T04:57:48;17.75;;;4.40;;
13173;SDS011;6652;48.802;9.190;2023-09-18T05:00:15;19.67;;;4.43;;
13173;SDS011;6652;48.802;9.190;2023-09-18T05:02:42;20.90;;;4.30;;
13173;SDS011;6652;48.802;9.190;2023-09-18T05:05:10;25.08;;;4.30;;
13173;SDS011;6652;48.802;9.190;2023-09-18T05:07:38;21.73;;;4.40;;
13173;SDS011;6652;48.802;9.190;2023-09-18T05:10:05;20.92;;;5.90;;
13173;SDS011;6652;48.802;9.190;2023-09-18T05:12:33;18.70;;;4.10;;
13173;SDS011;6652;48.802;9.190;2023-09-18T05:14:59;28.27;;;4.32;;
13173;SDS011;6652;48.802;9.190;2023-09-18T05:17:38;18.55;;;4.50;;
13173;SDS011;6652;48.802;9.190;2023-09-18T05:20:07;19.67;;;4.63;;
13173;SDS011;6652;48.802;9.190;2023-09-18T05:22:38;21.25;;;4.22;;
13173;SDS011;6652;48.802;9.190;2023-09-18T05:25:04;17.38;;;4.43;;
13173;SDS011;6652;48.802;9.190;2023-09-18T05:27:32;16.33;;;4.35;;
13173;SDS011;6652;48.802;9.190;2023-09-18T05:29:58;20.17;;;4.28;;
13173;SDS011;6652;48.802;9.190;2023-09-18T05:32:25;18.77;;;4.13;;
13173;SDS011;6652;48.802;9.190;2023-09-18T05:34:52;18.45;;;4.38;;
13173;SDS011;6652;48.802;9.190;2023-09-18T05:37:19;19.48;;;4.07;;
13173;SDS011;6652;48.802;9.190;2023-09-18T05:39:47;15.68;;;3.70;;
13173;SDS011;6652;48.802;9.190;2023-09-18T05:42:14;15.38;;;4.45;;
13173;SDS011;6652;48.802;9.190;2023-09-18T05:44:41;15.30;;;3.83;;
13173;SDS011;6652;48.802;9.190;2023-09-18T05:47:08;11.48;;;3.15;;
13173;SDS011;6652;48.802;9.190;2023-09-18T05:49:36;12.23;;;3.50;;
13173;SDS011;6652;48.802;9.190;2023-09-18T05:52:03;17.45;;;2.95;;
13173;SDS011;6652;48.802;9.190;2023-09-18T05:54:31;17.90;;;3.30;;
13173;SDS011;6652;48.802;9.190;2023-09-18T05:57:00;16.95;;;3.92;;
13173;SDS011;6652;48.802;9.190;2023-09-18T05:59:27;15.32;;;3.03;;
13173;SDS011;6652;48.802;9.190;2023-09-18T06:01:56;10.45;;;3.00;;
13173;SDS011;6652;48.802;9.190;2023-09-18T06:04:23;18.80;;;2.85;;
13173;SDS011;6652;48.802;9.190;2023-09-18T06:06:50;12.93;;;2.80;;
13173;SDS011;6652;48.802;9.190;2023-09-18T06:09:17;16.65;;;2.80;;
13173;SDS011;6652;48.802;9.190;2023-09-18T06:11:44;12.52;;;2.53;;
13173;SDS011;6652;48.802;9.190;2023-09-18T06:14:12;17.75;;;3.08;;
13173;SDS011;6652;48.802;9.190;2023-09-18T06:16:39;16.45;;;3.78;;
13173;SDS011;6652;48.802;9.190;2023-09-18T06:19:06;12.35;;;3.20;;
13173;SDS011;6652;48.802;9.190;2023-09-18T06:21:32;12.50;;;4.30;;
13173;SDS011;6652;48.802;9.190;2023-09-18T06:23:59;17.73;;;4.03;;
13173;SDS011;6652;48.802;9.190;2023-09-18T06:26:26;13.85;;;3.70;;
13173;SDS011;6652;48.802;9.190;2023-09-18T06:28:53;14.73;;;3.90;;
13173;SDS011;6652;48.802;9.190;2023-09-18T06:31:21;17.77;;;4.00;;
13173;SDS011;6652;48.802;9.190;2023-09-18T06:33:48;10.20;;;3.53;;
13173;SDS011;6652;48.802;9.190;2023-09-18T06:36:15;12.00;;;3.70;;
13173;SDS011;6652;48.802;9.190;2023-09-18T06:38:42;12.60;;;3.55;;
13173;SDS011;6652;48.802;9.190;2023-09-18T06:41:08;22.30;;;3.55;;
13173;SDS011;6652;48.802;9.190;2023-09-18T06:43:35;21.60;;;4.10;;
13173;SDS011;6652;48.802;9.190;2023-09-18T06:46:02;18.80;;;4.07;;
13173;SDS011;6652;48.802;9.190;2023-09-18T06:48:30;19.15;;;3.92;;
13173;SDS011;6652;48.802;9.190;2023-09-18T06:50:57;19.08;;;4.10;;
13173;SDS011;6652;48.802;9.190;2023-09-18T06:53:25;19.80;;;4.32;;
13173;SDS011;6652;48.802;9.190;2023-09-18T06:55:52;14.73;;;4.70;;
13173;SDS011;6652;48.802;9.190;2023-09-18T06:58:19;13.05;;;4.20;;
13173;SDS011;6652;48.802;9.190;2023-09-18T07:00:46;17.30;;;4.88;;
13173;SDS011;6652;48.802;9.190;2023-09-18T07:03:15;20.92;;;5.13;;
13173;SDS011;6652;48.802;9.190;2023-09-18T07:05:44;18.40;;;4.13;;
13173;SDS011;6652;48.802;9.190;2023-09-18T07:08:11;17.27;;;3.90;;
13173;SDS011;6652;48.802;9.190;2023-09-18T07:10:38;23.05;;;5.20;;
13173;SDS011;6652;48.802;9.190;2023-09-18T07:13:05;14.55;;;3.40;;
13173;SDS011;6652;48.802;9.190;2023-09-18T07:15:31;10.45;;;2.80;;
13173;SDS011;6652;48.802;9.190;2023-09-18T07:17:58;15.88;;;3.55;;
13173;SDS011;6652;48.802;9.190;2023-09-18T07:20:25;16.75;;;3.20;;
13173;SDS011;6652;48.802;9.190;2023-09-18T07:22:53;13.02;;;3.40;;
13173;SDS011;6652;48.802;9.190;2023-09-18T07:25:20;12.02;;;2.92;;
13173;SDS011;6652;48.802;9.190;2023-09-18T07:27:47;20.85;;;4.25;;
13173;SDS011;6652;48.802;9.190;2023-09-18T07:30:14;20.17;;;3.78;;
13173;SDS011;6652;48.802;9.190;2023-09-18T07:32:42;21.55;;;4.05;;
13173;SDS011;6652;48.802;9.190;2023-09-18T07:35:09;17.27;;;3.45;;
13173;SDS011;6652;48.802;9.190;2023-09-18T07:37:36;13.45;;;3.60;;
13173;SDS011;6652;48.802;9.190;2023-09-18T07:40:05;13.90;;;3.20;;
13173;SDS011;6652;48.802;9.190;2023-09-18T07:42:33;17.40;;;3.28;;
13173;SDS011;6652;48.802;9.190;2023-09-18T07:44:59;13.50;;;2.80;;
13173;SDS011;6652;48.802;9.190;2023-09-18T07:47:26;17.25;;;2.88;;
13173;SDS011;6652;48.802;9.190;2023-09-18T07:49:53;11.85;;;2.63;;
13173;SDS011;6652;48.802;9.190;2023-09-18T07:52:20;8.40;;;2.90;;
13173;SDS011;6652;48.802;9.190;2023-09-18T07:54:47;10.65;;;2.35;;
13173;SDS011;6652;48.802;9.190;2023-09-18T07:57:15;5.85;;;1.60;;
13173;SDS011;6652;48.802;9.190;2023-09-18T07:59:42;11.40;;;2.45;;
13173;SDS011;6652;48.802;9.190;2023-09-18T08:02:09;14.38;;;2.00;;
13173;SDS011;6652;48.802;9.190;2023-09-18T08:04:35;9.15;;;2.45;;
13173;SDS011;6652;48.802;9.190;2023-09-18T08:07:03;10.63;;;2.30;;
13173;SDS011;6652;48.802;9.190;2023-09-18T08:09:31;15.82;;;2.20;;
13173;SDS011;6652;48.802;9.190;2023-09-18T08:12:01;3.85;;;1.70;;
13173;SDS011;6652;48.802;9.190;2023-09-18T08:14:29;18.85;;;4.53;;
13173;SDS011;6652;48.802;9.190;2023-09-18T08:16:56;13.63;;;3.03;;
13173;SDS011;6652;48.802;9.190;2023-09-18T08:19:23;6.30;;;1.33;;
13173;SDS011;6652;48.802;9.190;2023-09-18T08:21:52;6.50;;;1.40;;
13173;SDS011;6652;48.802;9.190;2023-09-18T08:24:19;7.45;;;1.20;;
13173;SDS011;6652;48.802;9.190;2023-09-18T08:26:46;5.40;;;1.48;;
13173;SDS011;6652;48.802;9.190;2023-09-18T08:29:13;5.60;;;1.10;;
13173;SDS011;6652;48.802;9.190;2023-09-18T08:31:41;11.18;;;1.50;;
13173;SDS011;6652;48.802;9.190;2023-09-18T08:34:08;8.38;;;1.20;;
13173;SDS011;6652;48.802;9.190;2023-09-18T08:36:35;5.90;;;1.08;;
13173;SDS011;6652;48.802;9.190;2023-09-18T08:39:02;9.35;;;1.17;;
13173;SDS011;6652;48.802;9.190;2023-09-18T08:41:31;5.80;;;1.40;;
13173;SDS011;6652;48.802;9.190;2023-09-18T08:43:59;5.15;;;1.23;;
13173;SDS011;6652;48.802;9.190;2023-09-18T08:46:28;6.05;;;1.10;;
13173;SDS011;6652;48.802;9.190;2023-09-18T08:48:57;6.93;;;1.23;;
13173;SDS011;6652;48.802;9.190;2023-09-18T08:51:24;3.90;;;1.20;;
13173;SDS011;6652;48.802;9.190;2023-09-18T08:53:53;5.97;;;1.20;;
13173;SDS011;6652;48.802;9.190;2023-09-18T08:56:21;8.50;;;1.58;;
13173;SDS011;6652;48.802;9.190;2023-09-18T08:58:48;7.97;;;1.23;;
13173;SDS011;6652;48.802;9.190;2023-09-18T09:01:15;5.40;;;1.38;;
13173;SDS011;6652;48.802;9.190;2023-09-18T09:03:43;4.50;;;1.65;;
13173;SDS011;6652;48.802;9.190;2023-09-18T09:06:16;7.35;;;1.55;;
13173;SDS011;6652;48.802;9.190;2023-09-18T09:08:43;7.85;;;1.98;;
13173;SDS011;6652;48.802;9.190;2023-09-18T09:11:10;4.93;;;1.60;;
13173;SDS011;6652;48.802;9.190;2023-09-18T09:13:37;8.70;;;1.60;;
13173;SDS011;6652;48.802;9.190;2023-09-18T09:16:04;5.82;;;1.63;;
13173;SDS011;6652;48.802;9.190;2023-09-18T09:18:31;4.93;;;1.63;;
13173;SDS011;6652;48.802;9.190;2023-09-18T09:20:58;4.28;;;1.23;;
13173;SDS011;6652;48.802;9.190;2023-09-18T09:23:44;6.78;;;1.38;;
13173;SDS011;6652;48.802;9.190;2023-09-18T09:26:14;3.40;;;1.40;;
13173;SDS011;6652;48.802;9.190;2023-09-18T09:28:42;8.60;;;1.88;;
13173;SDS011;6652;48.802;9.190;2023-09-18T09:31:10;5.90;;;1.40;;
13173;SDS011;6652;48.802;9.190;2023-09-18T09:33:37;5.93;;;1.60;;
13173;SDS011;6652;48.802;9.190;2023-09-18T09:36:06;4.80;;;1.48;;
13173;SDS011;6652;48.802;9.190;2023-09-18T09:38:34;6.07;;;1.52;;
13173;SDS011;6652;48.802;9.190;2023-09-18T09:41:02;7.50;;;1.65;;
13173;SDS011;6652;48.802;9.190;2023-09-18T09:43:34;2.40;;;1.10;;
13173;SDS011;6652;48.802;9.190;2023-09-18T09:46:02;8.30;;;1.23;;
13173;SDS011;6652;48.802;9.190;2023-09-18T09:48:30;6.28;;;1.23;;
13173;SDS011;6652;48.802;9.190;2023-09-18T09:50:58;6.75;;;1.48;;
13173;SDS011;6652;48.802;9.190;2023-09-18T09:53:43;4.72;;;1.40;;
13173;SDS011;6652;48.802;9.190;2023-09-18T09:56:12;9.27;;;2.08;;
13173;SDS011;6652;48.802;9.190;2023-09-18T09:58:39;3.47;;;1.48;;
13173;SDS011;6652;48.802;9.190;2023-09-18T10:01:09;3.53;;;1.63;;
13173;SDS011;6652;48.802;9.190;2023-09-18T10:03:43;8.10;;;1.60;;
13173;SDS011;6652;48.802;9.190;2023-09-18T10:06:11;3.08;;;1.60;;
13173;SDS011;6652;48.802;9.190;2023-09-18T10:08:39;8.38;;;1.73;;
13173;SDS011;6652;48.802;9.190;2023-09-18T10:11:08;6.28;;;2.10;;
13173;SDS011;6652;48.802;9.190;2023-09-18T10:13:42;4.15;;;1.58;;
13173;SDS011;6652;48.802;9.190;2023-09-18T10:18:45;7.97;;;1.50;;
13173;SDS011;6652;48.802;9.190;2023-09-18T10:21:24;4.70;;;1.45;;
13173;SDS011;6652;48.802;9.190;2023-09-18T10:23:59;5.95;;;1.73;;
13173;SDS011;6652;48.802;9.190;2023-09-18T10:26:34;6.22;;;1.58;;
13173;SDS011;6652;48.802;9.190;2023-09-18T10:29:06;4.70;;;1.67;;
13173;SDS011;6652;48.802;9.190;2023-09-18T10:31:36;7.05;;;1.80;;
13173;SDS011;6652;48.802;9.190;2023-09-18T10:34:06;10.82;;;2.47;;
13173;SDS011;6652;48.802;9.190;2023-09-18T10:36:33;7.75;;;2.03;;
13173;SDS011;6652;48.802;9.190;2023-09-18T10:39:02;7.88;;;2.38;;
13173;SDS011;6652;48.802;9.190;2023-09-18T10:41:34;6.07;;;1.67;;
13173;SDS011;6652;48.802;9.190;2023-09-18T10:44:02;6.95;;;1.88;;
13173;SDS011;6652;48.802;9.190;2023-09-18T10:46:30;4.97;;;1.80;;
13173;SDS011;6652;48.802;9.190;2023-09-18T10:48:58;5.88;;;1.88;;
13173;SDS011;6652;48.802;9.190;2023-09-18T10:51:28;13.10;;;2.22;;
13173;SDS011;6652;48.802;9.190;2023-09-18T10:53:57;13.05;;;1.98;;
13173;SDS011;6652;48.802;9.190;2023-09-18T10:56:25;7.35;;;2.00;;
13173;SDS011;6652;48.802;9.190;2023-09-18T10:58:57;3.13;;;1.45;;
13173;SDS011;6652;48.802;9.190;2023-09-18T11:01:25;9.27;;;2.50;;
13173;SDS011;6652;48.802;9.190;2023-09-18T11:03:57;7.40;;;1.88;;
13173;SDS011;6652;48.802;9.190;2023-09-18T11:06:26;4.80;;;1.63;;
13173;SDS011;6652;48.802;9.190;2023-09-18T11:08:58;6.57;;;1.67;;
13173;SDS011;6652;48.802;9.190;2023-09-18T11:11:29;5.85;;;1.60;;
13173;SDS011;6652;48.802;9.190;2023-09-18T11:13:59;13.73;;;2.03;;
13173;SDS011;6652;48.802;9.190;2023-09-18T11:16:34;6.07;;;2.03;;
13173;SDS011;6652;48.802;9.190;2023-09-18T11:19:10;7.72;;;1.90;;
13173;SDS011;6652;48.802;9.190;2023-09-18T11:21:39;7.55;;;2.10;;
13173;SDS011;6652;48.802;9.190;2023-09-18T11:24:06;16.75;;;2.70;;
13173;SDS011;6652;48.802;9.190;2023-09-18T11:26:36;3.63;;;1.58;;
13173;SDS011;6652;48.802;9.190;2023-09-18T11:29:08;6.10;;;1.70;;
13173;SDS011;6652;48.802;9.190;2023-09-18T11:31:42;5.07;;;1.90;;
13173;SDS011;6652;48.802;9.190;2023-09-18T11:34:14;8.85;;;1.60;;
13173;SDS011;6652;48.802;9.190;2023-09-18T11:36:45;9.57;;;1.45;;
13173;SDS011;6652;48.802;9.190;2023-09-18T11:42:07;2.30;;;1.27;;
13173;SDS011;6652;48.802;9.190;2023-09-18T11:44:37;7.00;;;1.50;;
13173;SDS011;6652;48.802;9.190;2023-09-18T11:47:11;3.83;;;1.50;;
13173;SDS011;6652;48.802;9.190;2023-09-18T11:49:45;6.28;;;1.67;;
13173;SDS011;6652;48.802;9.190;2023-09-18T11:52:15;6.63;;;1.20;;
13173;SDS011;6652;48.802;9.190;2023-09-18T11:54:42;7.00;;;1.52;;
13173;SDS011;6652;48.802;9.190;2023-09-18T11:57:11;2.80;;;1.23;;
13173;SDS011;6652;48.802;9.190;2023-09-18T11:59:41;3.15;;;1.20;;
13173;SDS011;6652;48.802;9.190;2023-09-18T12:02:09;6.00;;;1.38;;
13173;SDS011;6652;48.802;9.190;2023-09-18T12:04:36;3.72;;;1.30;;
13173;SDS011;6652;48.802;9.190;2023-09-18T12:07:04;3.50;;;1.83;;
13173;SDS011;6652;48.802;9.190;2023-09-18T12:09:31;5.75;;;1.67;;
13173;SDS011;6652;48.802;9.190;2023-09-18T12:11:59;6.55;;;1.83;;
13173;SDS011;6652;48.802;9.190;2023-09-18T12:14:30;3.92;;;1.40;;
13173;SDS011;6652;48.802;9.190;2023-09-18T12:17:00;1.75;;;1.05;;
13173;SDS011;6652;48.802;9.190;2023-09-18T12:19:28;6.32;;;1.38;;
13173;SDS011;6652;48.802;9.190;2023-09-18T12:21:55;4.93;;;1.30;;
13173;SDS011;6652;48.802;9.190;2023-09-18T12:24:23;7.05;;;3.15;;
13173;SDS011;6652;48.802;9.190;2023-09-18T12:26:51;5.75;;;1.30;;
13173;SDS011;6652;48.802;9.190;2023-09-18T12:29:18;7.85;;;1.50;;
13173;SDS011;6652;48.802;9.190;2023-09-18T12:31:45;4.28;;;1.40;;
13173;SDS011;6652;48.802;9.190;2023-09-18T12:34:18;5.45;;;1.50;;
13173;SDS011;6652;48.802;9.190;2023-09-18T12:36:46;5.50;;;1.40;;
13173;SDS011;6652;48.802;9.190;2023-09-18T12:39:14;8.77;;;1.85;;
13173;SDS011;6652;48.802;9.190;2023-09-18T12:41:41;9.35;;;1.80;;
13173;SDS011;6652;48.802;9.190;2023-09-18T12:44:10;5.18;;;2.10;;
13173;SDS011;6652;48.802;9.190;2023-09-18T12:46:39;7.63;;;1.80;;
13173;SDS011;6652;48.802;9.190;2023-09-18T12:49:21;5.82;;;1.70;;
13173;SDS011;6652;48.802;9.190;2023-09-18T12:51:56;4.35;;;1.50;;
13173;SDS011;6652;48.802;9.190;2023-09-18T12:54:36;4.28;;;1.60;;
13173;SDS011;6652;48.802;9.190;2023-09-18T12:57:06;6.50;;;1.90;;
13173;SDS011;6652;48.802;9.190;2023-09-18T12:59:34;6.80;;;2.22;;
13173;SDS011;6652;48.802;9.190;2023-09-18T13:02:05;6.82;;;1.70;;
13173;SDS011;6652;48.802;9.190;2023-09-18T13:04:34;5.03;;;1.65;;
13173;SDS011;6652;48.802;9.190;2023-09-18T13:07:03;2.75;;;1.30;;
13173;SDS011;6652;48.802;9.190;2023-09-18T13:09:36;5.63;;;1.80;;
13173;SDS011;6652;48.802;9.190;2023-09-18T13:12:06;5.22;;;1.23;;
13173;SDS011;6652;48.802;9.190;2023-09-18T13:17:37;7.53;;;1.95;;
13173;SDS011;6652;48.802;9.190;2023-09-18T13:20:13;5.50;;;1.30;;
13173;SDS011;6652;48.802;9.190;2023-09-18T13:22:42;3.50;;;1.40;;
13173;SDS011;6652;48.802;9.190;2023-09-18T13:25:18;4.77;;;1.23;;
13173;SDS011;6652;48.802;9.190;2023-09-18T13:27:45;5.88;;;1.00;;
13173;SDS011;6652;48.802;9.190;2023-09-18T13:30:12;8.65;;;1.50;;
13173;SDS011;6652;48.802;9.190;2023-09-18T13:32:42;4.18;;;1.17;;
13173;SDS011;6652;48.802;9.190;2023-09-18T13:35:10;3.53;;;1.10;;
13173;SDS011;6652;48.802;9.190;2023-09-18T13:37:40;2.03;;;1.02;;
13173;SDS011;6652;48.802;9.190;2023-09-18T13:40:08;4.43;;;1.17;;
13173;SDS011;6652;48.802;9.190;2023-09-18T13:42:35;2.75;;;1.15;;
13173;SDS011;6652;48.802;9.190;2023-09-18T13:45:05;6.22;;;1.23;;
13173;SDS011;6652;48.802;9.190;2023-09-18T13:47:33;2.85;;;1.30;;
13173;SDS011;6652;48.802;9.190;2023-09-18T13:50:02;5.10;;;1.05;;
13173;SDS011;6652;48.802;9.190;2023-09-18T13:52:31;2.42;;;1.00;;
13173;SDS011;6652;48.802;9.190;2023-09-18T13:55:01;3.78;;;1.30;;
13173;SDS011;6652;48.802;9.190;2023-09-18T13:57:30;3.92;;;1.25;;
13173;SDS011;6652;48.802;9.190;2023-09-18T13:59:57;3.25;;;0.80;;
13173;SDS011;6652;48.802;9.190;2023-09-18T14:02:25;11.05;;;1.30;;
13173;SDS011;6652;48.802;9.190;2023-09-18T14:04:52;2.92;;;1.00;;
13173;SDS011;6652;48.802;9.190;2023-09-18T14:07:20;3.15;;;1.10;;
13173;SDS011;6652;48.802;9.190;2023-09-18T14:09:47;4.00;;;1.17;;
13173;SDS011;6652;48.802;9.190;2023-09-18T14:12:15;3.90;;;1.10;;
13173;SDS011;6652;48.802;9.190;2023-09-18T14:14:42;4.05;;;1.00;;
13173;SDS011;6652;48.802;9.190;2023-09-18T14:17:10;8.35;;;1.00;;
13173;SDS011;6652;48.802;9.190;2023-09-18T14:19:37;6.60;;;1.45;;
13173;SDS011;6652;48.802;9.190;2023-09-18T14:22:04;3.47;;;1.15;;
13173;SDS011;6652;48.802;9.190;2023-09-18T14:24:32;2.30;;;1.23;;
13173;SDS011;6652;48.802;9.190;2023-09-18T14:27:00;2.65;;;1.10;;
13173;SDS011;6652;48.802;9.190;2023-09-18T14:29:29;3.45;;;1.00;;
13173;SDS011;6652;48.802;9.190;2023-09-18T14:31:56;3.13;;;1.25;;
13173;SDS011;6652;48.802;9.190;2023-09-18T14:34:23;1.00;;;0.90;;
13173;SDS011;6652;48.802;9.190;2023-09-18T14:36:50;4.07;;;1.10;;
13173;SDS011;6652;48.802;9.190;2023-09-18T14:39:18;1.80;;;1.00;;
13173;SDS011;6652;48.802;9.190;2023-09-18T14:41:45;3.85;;;1.02;;
13173;SDS011;6652;48.802;9.190;2023-09-18T14:44:12;4.30;;;1.02;;
13173;SDS011;6652;48.802;9.190;2023-09-18T14:46:41;3.92;;;1.70;;
13173;SDS011;6652;48.802;9.190;2023-09-18T14:49:09;2.15;;;0.90;;
13173;SDS011;6652;48.802;9.190;2023-09-18T14:51:36;3.88;;;1.40;;
13173;SDS011;6652;48.802;9.190;2023-09-18T14:54:03;4.55;;;1.20;;
13173;SDS011;6652;48.802;9.190;2023-09-18T14:56:31;4.18;;;1.20;;
13173;SDS011;6652;48.802;9.190;2023-09-18T14:59:00;5.45;;;1.40;;
13173;SDS011;6652;48.802;9.190;2023-09-18T15:04:01;4.25;;;1.20;;
13173;SDS011;6652;48.802;9.190;2023-09-18T15:06:29;1.95;;;1.00;;
13173;SDS011;6652;48.802;9.190;2023-09-18T15:08:57;3.63;;;1.27;;
13173;SDS011;6652;48.802;9.190;2023-09-18T15:11:26;4.40;;;1.23;;
13173;SDS011;6652;48.802;9.190;2023-09-18T15:13:54;1.08;;;0.70;;